Time;durP1;ratioP1;P1;durP2;ratioP2;P2;SDS_P1;SDS_P2;PMS_P1;PMS_P2;Temp;Humidity;BMP_temperature;BMP_pressure;BME280_temperature;BME280_humidity;BME280_pressure;Samples;Min_cycle;Max_cycle;Signal;HPM_P1;HPM_P2
2022/08/20 00:02:19;;;;;;;1.23;0.70;;;20.80;99.90;;;;;;5051822;28;20123;-71
2022/08/20 00:04:46;;;;;;;1.75;1.02;;;20.80;99.90;;;;;;5052554;28;20048;-70
2022/08/20 00:07:13;;;;;;;1.13;0.73;;;20.80;99.90;;;;;;5051466;28;20064;-71
2022/08/20 00:09:40;;;;;;;1.40;0.90;;;20.90;99.90;;;;;;5051466;28;20032;-72
2022/08/20 00:12:06;;;;;;;3.35;1.33;;;20.90;99.90;;;;;;5051502;28;20032;-71
2022/08/20 00:14:33;;;;;;;1.80;1.15;;;20.90;99.90;;;;;;5051693;28;20030;-72
2022/08/20 00:17:00;;;;;;;0.93;0.88;;;20.80;99.90;;;;;;5051432;28;20033;-71
2022/08/20 00:19:25;;;;;;;3.05;1.35;;;20.80;99.90;;;;;;5051782;28;20029;-72
2022/08/20 00:21:52;;;;;;;1.95;1.02;;;20.90;99.90;;;;;;5051749;28;20086;-73
2022/08/20 00:24:18;;;;;;;3.22;1.50;;;20.80;99.90;;;;;;5051231;28;20044;-72
2022/08/20 00:26:44;;;;;;;4.38;2.20;;;20.80;99.90;;;;;;5052048;28;20068;-72
2022/08/20 00:29:09;;;;;;;7.13;3.35;;;20.80;99.90;;;;;;5051916;28;20167;-73
2022/08/20 00:31:35;;;;;;;6.15;2.88;;;20.70;99.90;;;;;;5050712;28;20447;-72
2022/08/20 00:34:00;;;;;;;6.65;2.55;;;20.70;99.90;;;;;;5051577;28;20036;-71
2022/08/20 00:36:26;;;;;;;5.22;3.28;;;20.60;99.90;;;;;;5051392;28;20029;-72
2022/08/20 00:38:52;;;;;;;5.78;3.35;;;20.50;99.90;;;;;;5033433;28;20033;-72
2022/08/20 00:41:24;;;;;;;4.35;2.63;;;20.50;99.90;;;;;;5051662;28;20988;-70
2022/08/20 00:44:17;;;;;;;6.50;3.40;;;20.30;99.90;;;;;;5051432;28;20033;-72
2022/08/20 00:46:44;;;;;;;5.93;3.30;;;20.30;99.90;;;;;;5051212;28;20049;-72
2022/08/20 00:49:16;;;;;;;9.10;3.83;;;20.20;99.90;;;;;;5031908;28;20049;-73
2022/08/20 00:51:52;;;;;;;7.22;3.45;;;20.20;99.90;;;;;;5054147;28;20075;-72
2022/08/20 00:54:33;;;;;;;8.38;4.20;;;20.00;99.90;;;;;;5056070;28;20029;-70
2022/08/20 00:57:07;;;;;;;5.00;3.17;;;19.90;99.90;;;;;;5053650;28;20025;-69
2022/08/20 00:59:36;;;;;;;7.77;3.83;;;19.80;99.90;;;;;;5055219;28;20122;-71
2022/08/20 01:02:04;;;;;;;5.38;3.50;;;19.70;99.90;;;;;;5055411;28;20260;-71
2022/08/20 01:04:32;;;;;;;9.60;4.45;;;19.70;99.90;;;;;;5054157;28;20049;-71
2022/08/20 01:06:58;;;;;;;4.13;2.85;;;19.70;99.90;;;;;;5055148;28;20041;-70
2022/08/20 01:09:24;;;;;;;7.63;3.25;;;19.50;99.90;;;;;;5054946;28;20037;-69
2022/08/20 01:11:51;;;;;;;6.28;3.45;;;19.50;99.90;;;;;;5055060;28;20030;-70
2022/08/20 01:16:56;;;;;;;3.17;2.20;;;19.40;99.90;;;;;;5054003;28;20035;-70
2022/08/20 01:19:29;;;;;;;4.00;2.78;;;19.30;99.90;;;;;;5054750;28;20044;-70
2022/08/20 01:21:54;;;;;;;7.68;3.30;;;19.30;99.90;;;;;;5054966;28;20025;-70
2022/08/20 01:24:38;;;;;;;3.00;1.70;;;19.30;99.90;;;;;;5054647;28;20034;-72
2022/08/20 01:27:05;;;;;;;3.55;1.60;;;19.30;99.90;;;;;;5054979;28;21479;-68
2022/08/20 01:29:37;;;;;;;3.95;2.55;;;19.30;99.90;;;;;;5054643;28;20021;-69
2022/08/20 01:32:04;;;;;;;2.90;1.83;;;19.30;99.90;;;;;;5054058;28;20036;-70
2022/08/20 01:34:30;;;;;;;4.28;1.90;;;19.20;99.90;;;;;;5054342;28;20025;-69
2022/08/20 01:36:57;;;;;;;5.22;2.05;;;19.10;99.90;;;;;;5054772;28;20056;-71
2022/08/20 01:39:40;;;;;;;4.53;2.15;;;19.30;99.90;;;;;;5053064;28;20026;-70
2022/08/20 01:42:25;;;;;;;3.40;2.00;;;19.30;99.90;;;;;;5053974;28;20029;-70
2022/08/20 01:44:51;;;;;;;5.03;2.25;;;19.30;99.90;;;;;;5054791;28;20060;-70
2022/08/20 01:47:25;;;;;;;3.47;1.58;;;19.30;99.90;;;;;;5054319;28;20038;-73
2022/08/20 01:49:58;;;;;;;2.33;1.50;;;19.30;99.90;;;;;;5054110;28;20036;-70
2022/08/20 01:52:30;;;;;;;3.60;1.80;;;19.30;99.90;;;;;;5053935;28;20269;-70
2022/08/20 01:54:56;;;;;;;4.85;1.52;;;19.30;99.90;;;;;;5054634;28;20047;-71
2022/08/20 01:57:28;;;;;;;1.75;1.38;;;19.40;99.90;;;;;;5054183;28;20039;-71
2022/08/20 01:59:54;;;;;;;4.70;2.05;;;19.40;99.90;;;;;;5053301;28;20021;-70
2022/08/20 02:02:21;;;;;;;5.63;1.55;;;19.30;99.90;;;;;;5054205;28;20034;-71
2022/08/20 02:04:47;;;;;;;2.50;1.70;;;19.40;99.90;;;;;;5053955;28;20044;-70
2022/08/20 02:07:22;;;;;;;2.40;1.40;;;19.30;99.90;;;;;;5053937;28;20540;-70
2022/08/20 02:09:48;;;;;;;;;;;19.40;99.90;;;;;;5053983;28;20400;-70
2022/08/20 02:12:15;;;;;;;2.03;1.45;;;19.40;99.90;;;;;;5053994;28;19908;-70
2022/08/20 02:14:45;;;;;;;3.47;2.40;;;19.40;99.90;;;;;;5052447;28;20018;-72
2022/08/20 02:17:12;;;;;;;3.42;1.85;;;19.40;99.90;;;;;;5052809;28;20025;-69
2022/08/20 02:19:42;;;;;;;3.67;1.73;;;19.30;99.90;;;;;;5052129;28;20536;-70
2022/08/20 02:22:28;;;;;;;3.78;2.25;;;19.50;99.90;;;;;;5051268;28;20090;-70
2022/08/20 02:24:53;;;;;;;1.98;1.38;;;19.40;99.90;;;;;;5052697;28;20036;-69
2022/08/20 02:27:22;;;;;;;5.32;2.00;;;19.50;99.90;;;;;;5052924;28;20034;-69
2022/08/20 02:29:50;;;;;;;4.97;1.75;;;19.40;99.90;;;;;;5052975;28;20036;-72
2022/08/20 02:32:20;;;;;;;5.65;2.20;;;19.40;99.90;;;;;;5052423;28;20013;-70
2022/08/20 02:34:48;;;;;;;4.40;1.75;;;19.40;99.90;;;;;;5052980;28;20024;-71
2022/08/20 02:37:17;;;;;;;3.72;1.95;;;19.50;99.90;;;;;;5052519;28;20044;-69
2022/08/20 02:39:43;;;;;;;2.85;1.67;;;19.50;99.90;;;;;;5052019;28;20083;-70
2022/08/20 02:42:20;;;;;;;4.57;1.83;;;19.50;99.90;;;;;;5052490;28;20029;-71
2022/08/20 02:44:46;;;;;;;9.40;2.20;;;19.50;99.90;;;;;;5053026;28;20047;-72
2022/08/20 02:47:11;;;;;;;3.08;2.00;;;19.50;99.90;;;;;;5052747;28;20037;-72
2022/08/20 02:49:43;;;;;;;5.10;1.60;;;19.50;99.90;;;;;;5052487;28;20539;-70
2022/08/20 02:52:09;;;;;;;5.22;2.00;;;19.50;99.90;;;;;;5052155;28;20500;-71
2022/08/20 02:54:34;;;;;;;3.03;1.85;;;19.50;99.90;;;;;;5051693;28;20084;-72
2022/08/20 02:57:02;;;;;;;3.80;2.05;;;19.50;99.90;;;;;;5052670;28;20032;-70
2022/08/20 02:59:28;;;;;;;2.38;1.77;;;19.50;99.90;;;;;;5045200;28;20093;-71
2022/08/20 03:02:10;;;;;;;3.53;2.10;;;19.40;99.90;;;;;;5051339;28;20123;-71
2022/08/20 03:04:36;;;;;;;3.60;2.17;;;19.40;99.90;;;;;;5053533;28;20045;-70
2022/08/20 03:07:04;;;;;;;2.55;1.77;;;19.40;99.90;;;;;;5052156;28;20705;-71
2022/08/20 03:09:30;;;;;;;2.83;1.98;;;19.40;99.90;;;;;;5052240;28;20034;-72
2022/08/20 03:11:56;;;;;;;4.18;1.75;;;19.40;99.90;;;;;;5051394;28;20061;-72
2022/08/20 03:14:24;;;;;;;4.68;2.65;;;19.30;99.90;;;;;;5050732;28;20036;-72
2022/08/20 03:16:50;;;;;;;5.50;2.58;;;19.30;99.90;;;;;;5052729;28;20085;-72
2022/08/20 03:19:17;;;;;;;4.38;2.40;;;19.30;99.90;;;;;;5051762;28;20032;-72
2022/08/20 03:21:42;;;;;;;4.18;2.63;;;19.30;99.90;;;;;;5046431;28;20117;-72
2022/08/20 03:24:08;;;;;;;4.38;2.10;;;19.30;99.90;;;;;;5053033;28;20056;-71
2022/08/20 03:26:41;;;;;;;5.72;2.63;;;19.20;99.90;;;;;;5052847;28;20049;-72
2022/08/20 03:29:07;;;;;;;6.05;2.83;;;19.20;99.90;;;;;;5052227;28;20128;-73
2022/08/20 03:31:33;;;;;;;3.72;2.75;;;19.20;99.90;;;;;;5052906;28;20025;-73
2022/08/20 03:33:58;;;;;;;5.85;2.80;;;19.20;99.90;;;;;;5052570;28;20029;-72
2022/08/20 03:36:26;;;;;;;6.57;2.58;;;19.10;99.90;;;;;;5052088;28;20025;-74
2022/08/20 03:38:51;;;;;;;5.25;3.03;;;19.20;99.90;;;;;;5052638;28;20029;-72
2022/08/20 03:41:17;;;;;;;6.63;2.45;;;19.10;99.90;;;;;;5052974;28;20032;-73
2022/08/20 03:43:44;;;;;;;5.78;3.33;;;19.20;99.90;;;;;;5052320;28;20879;-72
2022/08/20 03:46:10;;;;;;;5.22;2.75;;;19.20;99.90;;;;;;5044140;28;20151;-73
2022/08/20 03:48:36;;;;;;;5.07;2.92;;;19.20;99.90;;;;;;5052384;28;20056;-71
2022/08/20 03:51:02;;;;;;;3.90;2.60;;;19.20;99.90;;;;;;5051341;28;20056;-74
2022/08/20 03:53:30;;;;;;;5.10;2.95;;;19.20;99.90;;;;;;5050722;28;20847;-71
2022/08/20 03:55:59;;;;;;;13.35;3.63;;;19.20;99.90;;;;;;5050916;28;20033;-72
2022/08/20 03:58:27;;;;;;;9.30;3.20;;;19.10;99.90;;;;;;5051824;28;20025;-73
2022/08/20 04:00:54;;;;;;;5.78;3.15;;;19.20;99.90;;;;;;5034423;28;20092;-73
2022/08/20 04:03:21;;;;;;;6.10;3.17;;;19.20;99.90;;;;;;5051646;28;20021;-72
2022/08/20 04:05:47;;;;;;;6.35;3.70;;;19.10;99.90;;;;;;5052111;28;20017;-73
2022/08/20 04:08:25;;;;;;;5.80;3.60;;;19.10;99.90;;;;;;5052552;28;20080;-72
2022/08/20 04:10:53;;;;;;;11.02;4.25;;;19.10;99.90;;;;;;5052036;28;20025;-72
2022/08/20 04:13:20;;;;;;;9.13;4.38;;;19.10;99.90;;;;;;5051476;28;20048;-71
2022/08/20 04:15:47;;;;;;;8.20;4.95;;;19.10;99.90;;;;;;5052050;28;20377;-73
2022/08/20 04:18:14;;;;;;;9.05;4.78;;;19.10;99.90;;;;;;5042716;28;20021;-72
2022/08/20 04:20:41;;;;;;;8.32;4.03;;;19.00;99.90;;;;;;5050414;28;20040;-72
2022/08/20 04:23:08;;;;;;;8.77;4.40;;;19.10;99.90;;;;;;5050770;28;20048;-72
2022/08/20 04:25:39;;;;;;;7.43;4.03;;;19.20;99.90;;;;;;5051549;28;20017;-74
2022/08/20 04:28:09;;;;;;;12.30;4.72;;;19.10;99.90;;;;;;5049427;28;20017;-74
2022/08/20 04:30:35;;;;;;;7.53;4.25;;;19.10;99.90;;;;;;5052016;28;20028;-73
2022/08/20 04:33:01;;;;;;;7.90;5.13;;;19.10;99.90;;;;;;5050744;28;20026;-73
2022/08/20 04:35:27;;;;;;;8.38;3.90;;;19.10;99.90;;;;;;5051322;28;20136;-73
2022/08/20 04:38:10;;;;;;;19.30;4.97;;;19.10;99.90;;;;;;5049831;28;20021;-74
2022/08/20 04:43:24;;;;;;;10.20;5.03;;;19.10;99.90;;;;;;5051641;28;20628;-73
2022/08/20 04:45:51;;;;;;;11.82;5.35;;;19.10;99.90;;;;;;5051436;28;20029;-73
2022/08/20 04:48:19;;;;;;;7.32;3.92;;;19.20;99.90;;;;;;5051133;28;20457;-75
2022/08/20 04:50:45;;;;;;;10.07;4.93;;;19.10;99.90;;;;;;5049414;28;20056;-76
2022/08/20 04:53:16;;;;;;;9.23;4.68;;;19.10;99.90;;;;;;5049969;28;20094;-74
2022/08/20 04:55:50;;;;;;;9.55;4.78;;;19.20;99.90;;;;;;5049962;28;20029;-75
2022/08/20 04:58:25;;;;;;;8.90;4.72;;;19.10;99.90;;;;;;5050717;28;20060;-76
2022/08/20 05:00:54;;;;;;;8.05;4.63;;;19.20;99.90;;;;;;5051598;28;20091;-75
2022/08/20 05:03:19;;;;;;;9.27;5.35;;;19.20;99.90;;;;;;5050777;28;20041;-75
2022/08/20 05:05:53;;;;;;;20.67;5.45;;;19.20;99.90;;;;;;5045638;28;21079;-74
2022/08/20 05:08:24;;;;;;;6.95;4.55;;;19.20;99.90;;;;;;5049979;28;20108;-75
2022/08/20 05:10:51;;;;;;;9.07;5.03;;;19.20;99.90;;;;;;5051356;28;20017;-74
2022/08/20 05:13:18;;;;;;;8.73;5.00;;;19.20;99.90;;;;;;5049427;28;20034;-75
2022/08/20 05:15:47;;;;;;;8.73;5.38;;;19.20;99.90;;;;;;5047853;28;20043;-74
2022/08/20 05:18:29;;;;;;;9.75;5.10;;;19.20;99.90;;;;;;5045451;28;20093;-75
2022/08/20 05:21:00;;;;;;;11.63;5.38;;;19.30;99.90;;;;;;5050702;28;20047;-74
2022/08/20 05:23:25;;;;;;;8.05;5.18;;;19.30;99.90;;;;;;5050367;28;20064;-74
2022/08/20 05:25:51;;;;;;;9.45;5.50;;;19.20;99.90;;;;;;5049256;28;20025;-76
2022/08/20 05:28:21;;;;;;;12.20;5.90;;;19.30;99.90;;;;;;5049926;28;20040;-76
2022/08/20 05:30:48;;;;;;;18.52;6.38;;;19.30;99.90;;;;;;5045625;28;20039;-74
2022/08/20 05:33:18;;;;;;;10.15;5.60;;;19.30;99.90;;;;;;5049509;28;20033;-74
2022/08/20 05:35:45;;;;;;;11.18;6.10;;;19.40;99.90;;;;;;5053804;28;20021;-74
2022/08/20 05:38:15;;;;;;;14.23;6.35;;;19.40;99.90;;;;;;5053923;28;20037;-75
2022/08/20 05:40:41;;;;;;;7.47;4.78;;;19.40;99.90;;;;;;5054587;28;20021;-75
2022/08/20 05:43:07;;;;;;;10.75;5.82;;;19.40;99.90;;;;;;5053996;28;20058;-75
2022/08/20 05:45:42;;;;;;;10.88;6.07;;;19.40;99.90;;;;;;5053584;28;20026;-75
2022/08/20 05:48:12;;;;;;;9.85;6.18;;;19.40;99.90;;;;;;5054658;28;20459;-74
2022/08/20 05:50:39;;;;;;;10.15;5.10;;;19.40;99.90;;;;;;5036507;28;20033;-74
2022/08/20 05:53:05;;;;;;;14.30;5.18;;;19.40;99.90;;;;;;5054079;28;20022;-75
2022/08/20 05:55:31;;;;;;;14.77;6.18;;;19.40;99.90;;;;;;5052608;28;20508;-74
2022/08/20 05:57:59;;;;;;;12.32;7.15;;;19.50;99.90;;;;;;5054007;28;20044;-75
2022/08/20 06:00:25;;;;;;;10.02;4.72;;;19.40;99.90;;;;;;5042636;28;20040;-73
2022/08/20 06:05:35;;;;;;;10.48;5.88;;;19.50;99.90;;;;;;5047439;28;20056;-74
2022/08/20 06:08:02;;;;;;;13.65;6.25;;;19.50;99.90;;;;;;5052965;28;20033;-74
2022/08/20 06:10:28;;;;;;;15.50;6.93;;;19.50;99.90;;;;;;5054179;28;20046;-73
2022/08/20 06:12:53;;;;;;;9.60;5.32;;;19.50;99.90;;;;;;5054432;28;20078;-72
2022/08/20 06:15:19;;;;;;;14.35;7.03;;;19.60;99.90;;;;;;5054343;28;20059;-72
2022/08/20 06:17:45;;;;;;;17.92;6.75;;;19.60;99.90;;;;;;5051227;28;20048;-72
2022/08/20 06:20:20;;;;;;;19.27;6.45;;;19.60;99.90;;;;;;5053839;28;20078;-75
2022/08/20 06:22:46;;;;;;;10.38;5.38;;;19.70;99.90;;;;;;5054362;28;20040;-74
2022/08/20 06:25:11;;;;;;;24.60;6.95;;;19.80;99.90;;;;;;5053279;28;21105;-73
2022/08/20 06:27:43;;;;;;;14.50;5.75;;;19.80;99.90;;;;;;5034002;28;20736;-75
2022/08/20 06:30:11;;;;;;;11.27;5.03;;;19.80;99.90;;;;;;5053720;28;20029;-72
2022/08/20 06:32:36;;;;;;;9.55;4.90;;;19.90;99.90;;;;;;5051069;28;20025;-72
2022/08/20 06:35:05;;;;;;;7.93;4.75;;;19.90;99.90;;;;;;5053358;28;20060;-71
2022/08/20 06:37:35;;;;;;;8.20;4.13;;;19.90;99.90;;;;;;5052353;28;20427;-69
2022/08/20 06:40:09;;;;;;;6.45;3.88;;;20.00;99.90;;;;;;5052003;28;20072;-71
2022/08/20 06:42:35;;;;;;;;;;;20.10;99.90;;;;;;5051327;28;20029;-70
2022/08/20 06:45:03;;;;;;;7.88;3.75;;;20.10;99.90;;;;;;5051683;28;19952;-71
2022/08/20 06:47:30;;;;;;;5.43;3.75;;;20.30;99.90;;;;;;5053284;28;20040;-71
2022/08/20 06:49:56;;;;;;;7.00;3.38;;;20.30;99.90;;;;;;5051105;28;20024;-70
2022/08/20 06:52:22;;;;;;;5.72;2.90;;;20.40;99.90;;;;;;5042666;28;20036;-70
2022/08/20 06:54:47;;;;;;;6.50;3.40;;;20.40;99.90;;;;;;5048806;28;20462;-71
2022/08/20 06:57:13;;;;;;;7.18;3.55;;;20.50;99.90;;;;;;5047324;28;20033;-72
2022/08/20 06:59:40;;;;;;;5.68;3.05;;;20.50;99.90;;;;;;5052167;28;20112;-70
2022/08/20 07:02:06;;;;;;;6.60;3.63;;;20.50;99.90;;;;;;5051073;28;20045;-71
2022/08/20 07:04:32;;;;;;;4.57;3.03;;;20.50;99.90;;;;;;5052269;28;20037;-70
2022/08/20 07:06:58;;;;;;;8.25;3.80;;;20.40;99.90;;;;;;5050878;28;20051;-71
2022/08/20 07:09:25;;;;;;;7.70;3.78;;;20.50;99.90;;;;;;5047042;28;20029;-70
2022/08/20 07:11:51;;;;;;;8.98;4.07;;;20.50;99.90;;;;;;5049479;28;20044;-73
2022/08/20 07:14:18;;;;;;;6.25;3.88;;;20.50;99.90;;;;;;5052671;28;20035;-70
2022/08/20 07:16:46;;;;;;;7.43;4.63;;;20.60;99.90;;;;;;5046290;28;20052;-69
2022/08/20 07:19:12;;;;;;;7.47;4.30;;;20.50;99.90;;;;;;5052579;28;20037;-71
2022/08/20 07:21:38;;;;;;;16.55;4.03;;;20.40;99.90;;;;;;5037227;28;20124;-72
2022/08/20 07:24:04;;;;;;;8.48;3.75;;;20.40;99.90;;;;;;5051635;28;20088;-71
2022/08/20 07:26:30;;;;;;;12.10;3.47;;;20.30;99.90;;;;;;5052089;28;20030;-72
2022/08/20 07:28:56;;;;;;;5.68;2.92;;;20.30;99.90;;;;;;5052935;28;20024;-70
2022/08/20 07:34:07;;;;;;;3.65;2.42;;;20.20;99.90;;;;;;5051531;28;20094;-70
2022/08/20 07:36:32;;;;;;;5.00;2.63;;;20.20;99.90;;;;;;5051585;28;20029;-71
2022/08/20 07:38:58;;;;;;;2.97;1.67;;;20.20;99.90;;;;;;5051986;28;20064;-71
2022/08/20 07:41:24;;;;;;;7.45;2.65;;;20.10;99.90;;;;;;5050622;28;20075;-71
2022/08/20 07:43:49;;;;;;;3.30;1.83;;;20.10;99.90;;;;;;5051860;28;20056;-73
2022/08/20 07:46:18;;;;;;;3.67;2.05;;;20.00;99.90;;;;;;5051668;28;20063;-70
2022/08/20 07:48:45;;;;;;;2.10;1.75;;;20.00;99.90;;;;;;5051840;28;20017;-70
2022/08/20 07:51:12;;;;;;;4.50;2.33;;;20.10;99.90;;;;;;5052177;28;20033;-69
2022/08/20 07:53:39;;;;;;;5.60;1.85;;;20.10;99.90;;;;;;5039855;28;21790;-69
2022/08/20 07:56:09;;;;;;;5.88;2.50;;;20.20;99.90;;;;;;5048703;28;20048;-70
2022/08/20 07:58:37;;;;;;;2.30;1.52;;;20.30;99.90;;;;;;5050628;28;20032;-69
2022/08/20 08:01:04;;;;;;;5.55;2.05;;;20.40;99.90;;;;;;5049296;28;20113;-68
2022/08/20 08:03:31;;;;;;;15.55;2.38;;;20.50;99.90;;;;;;5049798;28;20107;-69
2022/08/20 08:05:56;;;;;;;16.85;2.80;;;20.60;99.90;;;;;;5050976;28;20052;-69
2022/08/20 08:08:25;;;;;;;15.32;2.65;;;20.70;99.90;;;;;;5047065;28;20036;-70
2022/08/20 08:10:56;;;;;;;5.90;1.85;;;20.70;99.90;;;;;;5052382;28;20056;-70
2022/08/20 08:13:26;;;;;;;5.45;1.88;;;20.70;99.90;;;;;;5051730;28;20070;-69
2022/08/20 08:15:56;;;;;;;6.97;1.17;;;20.70;99.90;;;;;;5051348;28;20031;-69
2022/08/20 08:18:26;;;;;;;10.57;2.70;;;20.70;99.90;;;;;;5046995;28;20044;-71
2022/08/20 08:20:53;;;;;;;9.40;2.30;;;20.70;99.90;;;;;;5051438;28;20044;-69
2022/08/20 08:23:21;;;;;;;5.07;1.30;;;20.60;99.90;;;;;;5051570;28;20034;-71
2022/08/20 08:25:50;;;;;;;10.40;1.73;;;20.60;99.90;;;;;;5052209;28;20059;-70
2022/08/20 08:28:16;;;;;;;8.02;1.52;;;20.60;99.90;;;;;;5051125;28;20028;-70
2022/08/20 08:30:44;;;;;;;1.65;1.38;;;20.60;99.90;;;;;;5045894;28;20025;-70
2022/08/20 08:33:28;;;;;;;3.67;1.63;;;20.70;99.90;;;;;;5051127;28;20024;-69
2022/08/20 08:36:09;;;;;;;7.03;1.65;;;20.60;99.90;;;;;;5047682;28;20029;-71
2022/08/20 08:38:37;;;;;;;4.07;1.52;;;20.60;99.90;;;;;;5050285;28;20040;-71
2022/08/20 08:41:19;;;;;;;3.25;1.25;;;20.60;99.90;;;;;;5048877;28;20036;-73
2022/08/20 08:43:48;;;;;;;2.72;1.55;;;20.70;99.90;;;;;;5036277;28;20075;-72
2022/08/20 08:46:17;;;;;;;5.20;1.55;;;20.70;99.90;;;;;;5050891;28;20053;-70
2022/08/20 08:48:46;;;;;;;6.60;2.33;;;20.70;99.90;;;;;;5050975;28;20061;-72
2022/08/20 08:51:18;;;;;;;3.63;1.95;;;20.80;99.90;;;;;;5050912;28;20029;-72
2022/08/20 08:53:53;;;;;;;2.53;1.60;;;20.80;99.90;;;;;;5033307;28;20030;-72
2022/08/20 08:56:25;;;;;;;5.80;2.10;;;20.90;99.90;;;;;;5051405;28;20029;-72
2022/08/20 08:58:56;;;;;;;2.58;1.60;;;21.00;99.90;;;;;;5051873;28;20021;-74
2022/08/20 09:01:24;;;;;;;7.63;2.17;;;21.10;99.90;;;;;;5051154;28;20028;-73
2022/08/20 09:03:50;;;;;;;5.03;1.63;;;21.20;99.90;;;;;;5049792;28;20056;-71
2022/08/20 09:06:25;;;;;;;2.20;1.20;;;21.40;99.90;;;;;;5042591;28;20060;-73
2022/08/20 09:08:56;;;;;;;6.07;1.50;;;21.60;99.90;;;;;;5049618;28;20026;-74
2022/08/20 09:11:23;;;;;;;5.05;0.98;;;21.70;99.90;;;;;;5046776;28;20041;-74
2022/08/20 09:13:55;;;;;;;7.63;1.38;;;21.80;99.90;;;;;;5050232;28;20483;-73
2022/08/20 09:16:22;;;;;;;3.45;1.30;;;21.70;99.90;;;;;;5044741;28;20081;-74
2022/08/20 09:18:49;;;;;;;5.60;0.93;;;21.60;99.90;;;;;;5050851;28;20060;-73
2022/08/20 09:21:15;;;;;;;1.58;0.98;;;21.60;99.90;;;;;;5050974;28;20029;-72
2022/08/20 09:23:41;;;;;;;4.38;1.30;;;21.70;99.90;;;;;;5046979;28;20041;-72
2022/08/20 09:26:07;;;;;;;2.20;0.95;;;21.80;99.90;;;;;;5052929;28;20076;-73
2022/08/20 09:28:34;;;;;;;5.30;1.42;;;21.90;99.90;;;;;;5052768;28;20029;-72
2022/08/20 09:30:59;;;;;;;6.53;1.00;;;21.90;99.90;;;;;;5051667;28;20041;-71
2022/08/20 09:33:26;;;;;;;1.38;0.93;;;22.00;99.90;;;;;;5051515;28;20039;-71
2022/08/20 09:35:51;;;;;;;0.98;0.80;;;22.10;99.90;;;;;;5053741;28;20033;-72
2022/08/20 09:38:24;;;;;;;3.95;0.55;;;22.20;99.90;;;;;;5043615;28;20055;-72
2022/08/20 09:40:50;;;;;;;1.48;0.63;;;22.30;99.90;;;;;;5053664;28;20044;-74
2022/08/20 09:43:15;;;;;;;4.40;1.35;;;22.40;99.90;;;;;;5051278;28;20056;-72
2022/08/20 09:45:41;;;;;;;2.67;1.05;;;22.40;99.90;;;;;;5052960;28;20036;-71
2022/08/20 09:48:07;;;;;;;1.00;0.52;;;22.50;99.90;;;;;;5043078;28;20033;-73
2022/08/20 09:50:40;;;;;;;1.23;0.68;;;22.50;99.90;;;;;;5051607;28;20039;-74
2022/08/20 09:53:09;;;;;;;3.03;1.02;;;22.30;99.90;;;;;;5049114;28;20093;-73
2022/08/20 09:55:42;;;;;;;6.03;0.68;;;22.30;99.90;;;;;;5053291;28;20116;-74
2022/08/20 09:58:37;;;;;;;0.95;0.52;;;22.30;99.90;;;;;;5051662;28;20029;-74
2022/08/20 10:01:13;;;;;;;0.35;0.35;;;22.30;99.90;;;;;;5053373;28;20025;-75
2022/08/20 10:03:43;;;;;;;8.13;0.98;;;22.40;99.90;;;;;;5054385;28;20137;-73
2022/08/20 10:06:10;;;;;;;2.30;0.57;;;22.50;99.90;;;;;;5053681;28;20500;-74
2022/08/20 10:08:36;;;;;;;1.63;0.70;;;22.60;99.90;;;;;;5052688;28;20520;-74
2022/08/20 10:11:01;;;;;;;1.10;0.63;;;22.60;99.90;;;;;;5054069;28;20140;-73
2022/08/20 10:13:27;;;;;;;1.48;0.50;;;22.80;99.90;;;;;;5037348;28;20107;-74
2022/08/20 10:15:52;;;;;;;2.58;1.25;;;22.90;99.90;;;;;;5046030;28;20112;-73
2022/08/20 10:18:18;;;;;;;6.57;0.80;;;23.00;99.90;;;;;;5054314;28;20037;-74
2022/08/20 10:20:44;;;;;;;2.65;0.88;;;23.10;99.90;;;;;;5053300;28;20036;-74
2022/08/20 10:23:09;;;;;;;11.05;0.73;;;23.10;99.90;;;;;;5051798;28;20515;-73
2022/08/20 10:25:48;;;;;;;1.88;1.02;;;23.30;99.90;;;;;;5053938;28;20049;-74
2022/08/20 10:28:13;;;;;;;1.02;0.60;;;23.40;99.90;;;;;;5046270;28;20029;-73
2022/08/20 10:30:39;;;;;;;3.97;0.60;;;23.40;99.90;;;;;;5053858;28;20117;-74
2022/08/20 10:33:05;;;;;;;4.05;0.68;;;23.50;99.90;;;;;;5053805;28;20032;-73
2022/08/20 10:35:30;;;;;;;3.65;0.95;;;23.70;99.90;;;;;;5053269;28;20017;-73
2022/08/20 10:37:57;;;;;;;2.30;0.88;;;23.90;99.90;;;;;;5040099;28;20036;-75
2022/08/20 10:40:22;;;;;;;4.78;0.85;;;24.00;99.90;;;;;;5052849;28;20089;-74
2022/08/20 10:42:48;;;;;;;2.60;0.80;;;24.00;99.90;;;;;;5048910;28;20021;-73
2022/08/20 10:45:15;;;;;;;3.38;0.70;;;24.00;99.90;;;;;;5040512;28;20093;-71
2022/08/20 10:47:41;;;;;;;0.38;0.32;;;24.20;99.90;;;;;;5052903;28;20049;-73
2022/08/20 10:50:10;;;;;;;2.25;0.73;;;24.30;99.90;;;;;;5053241;28;20037;-74
2022/08/20 10:52:36;;;;;;;1.23;0.50;;;24.40;99.90;;;;;;5034472;28;20389;-74
2022/08/20 10:55:03;;;;;;;0.80;0.40;;;24.40;99.90;;;;;;5053281;28;20089;-73
2022/08/20 10:57:30;;;;;;;2.85;0.95;;;24.50;99.90;;;;;;5052912;28;20021;-75
2022/08/20 11:00:00;;;;;;;10.35;1.25;;;24.50;99.90;;;;;;5048820;28;20022;-73
2022/08/20 11:02:26;;;;;;;1.15;0.57;;;24.50;99.90;;;;;;5042750;28;20045;-74
2022/08/20 11:04:54;;;;;;;4.50;0.47;;;24.60;99.90;;;;;;5044481;28;20045;-73
2022/08/20 11:07:23;;;;;;;0.90;0.43;;;24.70;99.90;;;;;;5052575;28;20021;-73
2022/08/20 11:09:49;;;;;;;1.70;0.68;;;24.80;99.90;;;;;;5053296;28;20031;-74
2022/08/20 11:12:17;;;;;;;2.08;0.68;;;24.80;99.90;;;;;;5052996;28;20567;-73
2022/08/20 11:14:43;;;;;;;3.45;0.75;;;24.80;99.90;;;;;;5052564;28;20440;-74
2022/08/20 11:17:09;;;;;;;2.30;0.43;;;24.90;99.90;;;;;;5052663;28;20025;-73
2022/08/20 11:19:43;;;;;;;5.20;0.47;;;25.00;99.90;;;;;;5052839;28;20689;-73
2022/08/20 11:22:09;;;;;;;1.90;0.85;;;25.20;99.90;;;;;;5050587;28;20103;-74
2022/08/20 11:24:35;;;;;;;0.93;0.73;;;25.20;99.90;;;;;;5052793;28;20803;-74
2022/08/20 11:27:01;;;;;;;1.08;0.43;;;25.20;99.90;;;;;;5052009;28;20021;-73
2022/08/20 11:29:27;;;;;;;1.17;0.70;;;25.10;99.90;;;;;;5051974;28;20021;-73
2022/08/20 11:31:53;;;;;;;3.13;0.50;;;25.10;99.90;;;;;;5051644;28;20084;-75
2022/08/20 11:34:18;;;;;;;3.90;0.82;;;25.30;99.90;;;;;;5051135;28;20036;-74
2022/08/20 11:36:46;;;;;;;1.40;0.68;;;25.40;99.90;;;;;;5039507;28;20056;-74
2022/08/20 11:39:12;;;;;;;2.80;0.50;;;25.50;99.90;;;;;;5048478;28;20025;-73
2022/08/20 11:41:38;;;;;;;1.65;0.22;;;25.50;99.90;;;;;;5052207;28;20055;-73
2022/08/20 11:44:04;;;;;;;0.90;0.70;;;25.60;99.90;;;;;;5052057;28;20047;-74
2022/08/20 11:46:31;;;;;;;1.20;0.43;;;25.50;99.90;;;;;;5052161;28;20041;-74
2022/08/20 11:48:58;;;;;;;2.75;0.80;;;25.60;99.90;;;;;;5048067;28;20079;-73
2022/08/20 11:51:23;;;;;;;1.08;0.52;;;25.60;99.90;;;;;;5044341;28;20056;-74
2022/08/20 11:53:49;;;;;;;5.32;0.80;;;25.60;99.90;;;;;;5052622;28;20477;-75
2022/08/20 11:56:15;;;;;;;3.00;0.90;;;25.70;99.90;;;;;;5052077;28;20022;-73
2022/08/20 11:58:41;;;;;;;0.47;0.17;;;25.80;99.90;;;;;;5052203;28;20035;-74
2022/08/20 12:01:07;;;;;;;0.80;0.45;;;26.00;99.90;;;;;;5052412;28;20158;-74
2022/08/20 12:03:32;;;;;;;4.53;0.47;;;26.10;99.90;;;;;;5045075;28;20482;-73
2022/08/20 12:05:58;;;;;;;1.45;0.50;;;26.30;99.90;;;;;;5049224;28;20060;-75
2022/08/20 12:08:24;;;;;;;0.90;0.47;;;26.30;99.90;;;;;;5041029;28;20048;-73
2022/08/20 12:10:49;;;;;;;2.72;0.70;;;26.30;99.90;;;;;;5040592;28;20064;-74
2022/08/20 12:13:15;;;;;;;7.15;0.68;;;26.10;99.90;;;;;;5049054;28;20063;-73
2022/08/20 12:15:42;;;;;;;0.65;0.30;;;26.00;99.90;;;;;;5041447;28;20120;-72
2022/08/20 12:18:08;;;;;;;3.40;0.40;;;26.20;99.90;;;;;;5048158;28;20043;-72
2022/08/20 12:20:35;;;;;;;2.58;0.55;;;26.50;99.90;;;;;;5051149;28;20025;-71
2022/08/20 12:23:01;;;;;;;0.30;0.20;;;26.80;99.90;;;;;;5050190;28;20468;-73
2022/08/20 12:25:27;;;;;;;2.65;0.52;;;26.70;99.90;;;;;;5050394;28;20076;-74
2022/08/20 12:27:52;;;;;;;4.18;0.65;;;26.70;99.90;;;;;;5042399;28;20394;-74
2022/08/20 12:30:21;;;;;;;3.85;0.60;;;26.80;99.90;;;;;;5049052;28;20036;-75
2022/08/20 12:32:47;;;;;;;0.65;0.30;;;27.00;99.90;;;;;;5050224;28;20044;-73
2022/08/20 12:35:14;;;;;;;0.85;0.38;;;27.10;99.90;;;;;;5050318;28;20116;-73
2022/08/20 12:37:41;;;;;;;4.28;1.08;;;26.90;99.90;;;;;;5047754;28;20017;-74
2022/08/20 12:40:11;;;;;;;1.52;0.60;;;26.80;99.90;;;;;;5049020;28;20028;-73
2022/08/20 12:42:37;;;;;;;3.33;0.63;;;26.70;99.90;;;;;;5049180;28;20030;-73
2022/08/20 12:45:03;;;;;;;7.93;0.93;;;26.70;99.90;;;;;;5050747;28;20044;-73
2022/08/20 12:47:32;;;;;;;1.25;0.75;;;26.90;99.90;;;;;;5048500;28;20460;-73
2022/08/20 12:50:08;;;;;;;4.03;0.73;;;27.10;99.90;;;;;;5045797;28;20408;-72
2022/08/20 12:52:33;;;;;;;2.17;0.70;;;27.20;99.90;;;;;;5049808;28;20030;-76
2022/08/20 12:54:59;;;;;;;1.08;0.63;;;27.20;99.90;;;;;;5046747;28;20074;-74
2022/08/20 12:57:43;;;;;;;0.35;0.30;;;27.20;99.90;;;;;;5047734;28;20029;-74
2022/08/20 13:00:15;;;;;;;0.98;0.57;;;27.30;99.90;;;;;;5051131;28;20045;-74
2022/08/20 13:02:41;;;;;;;1.02;0.40;;;27.50;99.90;;;;;;5050501;28;20506;-74